sensor_id;sensor_type;location;lat;lon;timestamp;P1;durP1;ratioP1;P2;durP2;ratioP2
57565;SDS011;63999;43.882;-0.310;2023-01-15T17:01:49;8.00;;;2.60;;
57565;SDS011;63999;43.882;-0.310;2023-01-15T17:04:36;11.85;;;3.10;;
57565;SDS011;63999;43.882;-0.310;2023-01-15T17:07:30;9.23;;;4.30;;
57565;SDS011;63999;43.882;-0.310;2023-01-15T17:10:16;9.73;;;2.70;;
57565;SDS011;63999;43.882;-0.310;2023-01-15T17:12:52;12.43;;;5.03;;
57565;SDS011;63999;43.882;-0.310;2023-01-15T17:15:33;11.88;;;7.43;;
57565;SDS011;63999;43.882;-0.310;2023-01-15T17:18:17;7.20;;;3.05;;
57565;SDS011;63999;43.882;-0.310;2023-01-15T17:20:51;8.70;;;2.78;;
57565;SDS011;63999;43.882;-0.310;2023-01-15T17:23:22;10.00;;;2.95;;
57565;SDS011;63999;43.882;-0.310;2023-01-15T17:25:54;7.45;;;2.85;;
57565;SDS011;63999;43.882;-0.310;2023-01-15T17:28:28;9.43;;;2.83;;
57565;SDS011;63999;43.882;-0.310;2023-01-15T17:34:16;6.95;;;2.55;;
57565;SDS011;63999;43.882;-0.310;2023-01-15T17:37:09;11.30;;;3.78;;
57565;SDS011;63999;43.882;-0.310;2023-01-15T17:39:44;8.05;;;2.97;;
57565;SDS011;63999;43.882;-0.310;2023-01-15T17:42:15;9.45;;;2.83;;
57565;SDS011;63999;43.882;-0.310;2023-01-15T17:44:46;8.90;;;2.40;;
57565;SDS011;63999;43.882;-0.310;2023-01-15T17:47:14;9.13;;;3.05;;
57565;SDS011;63999;43.882;-0.310;2023-01-15T17:49:43;8.38;;;2.75;;
57565;SDS011;63999;43.882;-0.310;2023-01-15T17:52:20;13.23;;;4.90;;
57565;SDS011;63999;43.882;-0.310;2023-01-15T17:54:48;12.18;;;4.80;;
57565;SDS011;63999;43.882;-0.310;2023-01-15T17:57:34;10.07;;;4.05;;
57565;SDS011;63999;43.882;-0.310;2023-01-15T18:00:19;7.63;;;2.60;;
57565;SDS011;63999;43.882;-0.310;2023-01-15T18:03:08;7.55;;;3.15;;
57565;SDS011;63999;43.882;-0.310;2023-01-15T18:06:02;8.95;;;2.10;;
57565;SDS011;63999;43.882;-0.310;2023-01-15T18:08:29;8.02;;;1.70;;
57565;SDS011;63999;43.882;-0.310;2023-01-15T18:10:55;7.28;;;1.83;;
57565;SDS011;63999;43.882;-0.310;2023-01-15T18:13:23;9.50;;;1.90;;
57565;SDS011;63999;43.882;-0.310;2023-01-15T18:15:50;8.27;;;1.70;;
57565;SDS011;63999;43.882;-0.310;2023-01-15T18:18:18;8.77;;;1.65;;
57565;SDS011;63999;43.882;-0.310;2023-01-15T18:20:46;11.10;;;2.67;;
57565;SDS011;63999;43.882;-0.310;2023-01-15T18:23:13;11.68;;;3.97;;
57565;SDS011;63999;43.882;-0.310;2023-01-15T18:25:40;6.53;;;1.67;;
57565;SDS011;63999;43.882;-0.310;2023-01-15T18:28:11;6.88;;;1.50;;
57565;SDS011;63999;43.882;-0.310;2023-01-15T18:30:40;8.77;;;1.70;;
57565;SDS011;63999;43.882;-0.310;2023-01-15T18:33:07;4.95;;;1.52;;
57565;SDS011;63999;43.882;-0.310;2023-01-15T18:35:35;4.95;;;1.63;;
57565;SDS011;63999;43.882;-0.310;2023-01-15T18:38:02;5.13;;;1.30;;
57565;SDS011;63999;43.882;-0.310;2023-01-15T18:40:30;7.03;;;2.53;;
57565;SDS011;63999;43.882;-0.310;2023-01-15T18:43:00;9.05;;;3.05;;
57565;SDS011;63999;43.882;-0.310;2023-01-15T18:45:46;7.90;;;2.50;;
57565;SDS011;63999;43.882;-0.310;2023-01-15T18:48:33;7.72;;;2.22;;
57565;SDS011;63999;43.882;-0.310;2023-01-15T18:51:07;10.65;;;3.00;;
57565;SDS011;63999;43.882;-0.310;2023-01-15T18:53:39;5.25;;;2.42;;
57565;SDS011;63999;43.882;-0.310;2023-01-15T18:56:09;7.18;;;2.47;;
57565;SDS011;63999;43.882;-0.310;2023-01-15T19:01:26;8.40;;;4.50;;
57565;SDS011;63999;43.882;-0.310;2023-01-15T19:03:52;8.75;;;2.63;;
57565;SDS011;63999;43.882;-0.310;2023-01-15T19:06:19;4.78;;;1.88;;
57565;SDS011;63999;43.882;-0.310;2023-01-15T19:08:45;7.05;;;2.30;;
57565;SDS011;63999;43.882;-0.310;2023-01-15T19:11:11;5.97;;;2.03;;
57565;SDS011;63999;43.882;-0.310;2023-01-15T19:13:37;8.45;;;3.78;;
57565;SDS011;63999;43.882;-0.310;2023-01-15T19:16:04;6.28;;;3.00;;
57565;SDS011;63999;43.882;-0.310;2023-01-15T19:18:52;8.65;;;2.35;;
57565;SDS011;63999;43.882;-0.310;2023-01-15T19:21:26;6.00;;;2.28;;
57565;SDS011;63999;43.882;-0.310;2023-01-15T19:23:53;7.90;;;2.13;;
57565;SDS011;63999;43.882;-0.310;2023-01-15T19:26:23;7.15;;;1.98;;
57565;SDS011;63999;43.882;-0.310;2023-01-15T19:28:52;4.80;;;1.52;;
57565;SDS011;63999;43.882;-0.310;2023-01-15T19:31:21;5.82;;;1.67;;
57565;SDS011;63999;43.882;-0.310;2023-01-15T19:34:03;5.18;;;1.55;;
57565;SDS011;63999;43.882;-0.310;2023-01-15T19:36:46;7.10;;;2.00;;
57565;SDS011;63999;43.882;-0.310;2023-01-15T19:39:21;10.35;;;2.58;;
57565;SDS011;63999;43.882;-0.310;2023-01-15T19:41:53;10.25;;;2.58;;
57565;SDS011;63999;43.882;-0.310;2023-01-15T19:44:38;9.00;;;3.25;;
57565;SDS011;63999;43.882;-0.310;2023-01-15T19:47:34;10.10;;;2.92;;
57565;SDS011;63999;43.882;-0.310;2023-01-15T19:50:24;10.70;;;2.72;;
57565;SDS011;63999;43.882;-0.310;2023-01-15T19:53:01;8.10;;;1.83;;
57565;SDS011;63999;43.882;-0.310;2023-01-15T19:55:31;6.85;;;2.17;;
57565;SDS011;63999;43.882;-0.310;2023-01-15T19:58:03;6.07;;;1.92;;
57565;SDS011;63999;43.882;-0.310;2023-01-15T20:00:33;6.93;;;1.70;;
57565;SDS011;63999;43.882;-0.310;2023-01-15T20:03:01;7.70;;;1.30;;
57565;SDS011;63999;43.882;-0.310;2023-01-15T20:05:34;5.45;;;1.65;;
57565;SDS011;63999;43.882;-0.310;2023-01-15T20:08:00;4.95;;;1.75;;
57565;SDS011;63999;43.882;-0.310;2023-01-15T20:10:27;5.20;;;1.30;;
57565;SDS011;63999;43.882;-0.310;2023-01-15T20:12:55;7.40;;;1.88;;
57565;SDS011;63999;43.882;-0.310;2023-01-15T20:15:41;8.30;;;1.30;;
57565;SDS011;63999;43.882;-0.310;2023-01-15T20:18:10;6.45;;;1.30;;
57565;SDS011;63999;43.882;-0.310;2023-01-15T20:20:38;3.85;;;1.23;;
57565;SDS011;63999;43.882;-0.310;2023-01-15T20:23:05;4.38;;;1.02;;
57565;SDS011;63999;43.882;-0.310;2023-01-15T20:25:32;4.80;;;1.10;;
57565;SDS011;63999;43.882;-0.310;2023-01-15T20:28:00;5.30;;;1.20;;
57565;SDS011;63999;43.882;-0.310;2023-01-15T20:30:28;6.65;;;1.38;;
57565;SDS011;63999;43.882;-0.310;2023-01-15T20:32:55;6.07;;;1.20;;
57565;SDS011;63999;43.882;-0.310;2023-01-15T20:35:26;6.55;;;2.10;;
57565;SDS011;63999;43.882;-0.310;2023-01-15T20:37:56;7.25;;;1.27;;
57565;SDS011;63999;43.882;-0.310;2023-01-15T20:40:24;4.95;;;1.60;;
57565;SDS011;63999;43.882;-0.310;2023-01-15T20:42:51;6.05;;;1.10;;
57565;SDS011;63999;43.882;-0.310;2023-01-15T20:45:37;5.40;;;1.48;;
57565;SDS011;63999;43.882;-0.310;2023-01-15T20:48:05;6.28;;;1.52;;
57565;SDS011;63999;43.882;-0.310;2023-01-15T20:50:38;6.88;;;1.90;;
57565;SDS011;63999;43.882;-0.310;2023-01-15T20:53:07;3.78;;;1.20;;
57565;SDS011;63999;43.882;-0.310;2023-01-15T20:55:36;5.05;;;1.40;;
57565;SDS011;63999;43.882;-0.310;2023-01-15T20:58:06;7.97;;;1.38;;
57565;SDS011;63999;43.882;-0.310;2023-01-15T21:00:34;7.88;;;3.10;;
57565;SDS011;63999;43.882;-0.310;2023-01-15T21:03:01;4.28;;;1.60;;
57565;SDS011;63999;43.882;-0.310;2023-01-15T21:05:30;5.00;;;2.20;;
57565;SDS011;63999;43.882;-0.310;2023-01-15T21:07:57;3.63;;;1.45;;
57565;SDS011;63999;43.882;-0.310;2023-01-15T21:10:25;4.50;;;1.23;;
57565;SDS011;63999;43.882;-0.310;2023-01-15T21:12:52;4.70;;;1.13;;
57565;SDS011;63999;43.882;-0.310;2023-01-15T21:15:20;3.97;;;1.27;;
57565;SDS011;63999;43.882;-0.310;2023-01-15T21:17:47;6.03;;;1.30;;
57565;SDS011;63999;43.882;-0.310;2023-01-15T21:20:15;4.13;;;1.10;;
57565;SDS011;63999;43.882;-0.310;2023-01-15T21:22:42;5.00;;;1.30;;
57565;SDS011;63999;43.882;-0.310;2023-01-15T21:25:17;5.88;;;1.30;;
57565;SDS011;63999;43.882;-0.310;2023-01-15T21:27:45;6.03;;;1.10;;
57565;SDS011;63999;43.882;-0.310;2023-01-15T21:30:12;5.40;;;1.00;;
57565;SDS011;63999;43.882;-0.310;2023-01-15T21:32:39;6.22;;;1.20;;
57565;SDS011;63999;43.882;-0.310;2023-01-15T21:35:10;6.20;;;1.35;;
57565;SDS011;63999;43.882;-0.310;2023-01-15T21:37:37;4.93;;;1.60;;
57565;SDS011;63999;43.882;-0.310;2023-01-15T21:40:05;4.07;;;0.95;;
57565;SDS011;63999;43.882;-0.310;2023-01-15T21:42:32;4.90;;;1.23;;
57565;SDS011;63999;43.882;-0.310;2023-01-15T21:45:17;5.28;;;1.30;;
57565;SDS011;63999;43.882;-0.310;2023-01-15T21:47:44;5.82;;;1.15;;
57565;SDS011;63999;43.882;-0.310;2023-01-15T21:50:11;5.40;;;1.35;;
57565;SDS011;63999;43.882;-0.310;2023-01-15T21:52:38;5.28;;;1.20;;
57565;SDS011;63999;43.882;-0.310;2023-01-15T21:55:06;4.85;;;0.93;;
57565;SDS011;63999;43.882;-0.310;2023-01-15T21:57:33;6.22;;;1.20;;
57565;SDS011;63999;43.882;-0.310;2023-01-15T22:00:00;6.07;;;1.10;;
57565;SDS011;63999;43.882;-0.310;2023-01-15T22:02:27;6.82;;;1.33;;
57565;SDS011;63999;43.882;-0.310;2023-01-15T22:04:57;6.75;;;1.20;;
57565;SDS011;63999;43.882;-0.310;2023-01-15T22:07:24;5.57;;;1.50;;
57565;SDS011;63999;43.882;-0.310;2023-01-15T22:09:52;4.70;;;1.00;;
57565;SDS011;63999;43.882;-0.310;2023-01-15T22:12:18;3.20;;;1.15;;
57565;SDS011;63999;43.882;-0.310;2023-01-15T22:14:46;6.13;;;1.35;;
57565;SDS011;63999;43.882;-0.310;2023-01-15T22:17:14;8.18;;;1.20;;
57565;SDS011;63999;43.882;-0.310;2023-01-15T22:19:41;9.80;;;1.30;;
57565;SDS011;63999;43.882;-0.310;2023-01-15T22:22:08;5.32;;;1.10;;
57565;SDS011;63999;43.882;-0.310;2023-01-15T22:24:37;4.50;;;1.23;;
57565;SDS011;63999;43.882;-0.310;2023-01-15T22:27:05;6.32;;;1.23;;
57565;SDS011;63999;43.882;-0.310;2023-01-15T22:29:38;4.43;;;1.17;;
57565;SDS011;63999;43.882;-0.310;2023-01-15T22:32:06;7.35;;;1.08;;
57565;SDS011;63999;43.882;-0.310;2023-01-15T22:34:35;5.32;;;1.25;;
57565;SDS011;63999;43.882;-0.310;2023-01-15T22:37:01;3.38;;;0.95;;
57565;SDS011;63999;43.882;-0.310;2023-01-15T22:39:29;2.75;;;0.80;;
57565;SDS011;63999;43.882;-0.310;2023-01-15T22:41:56;4.20;;;1.05;;
57565;SDS011;63999;43.882;-0.310;2023-01-15T22:44:41;8.07;;;1.45;;
57565;SDS011;63999;43.882;-0.310;2023-01-15T22:47:08;3.50;;;0.88;;
57565;SDS011;63999;43.882;-0.310;2023-01-15T22:49:36;5.90;;;1.00;;
57565;SDS011;63999;43.882;-0.310;2023-01-15T22:52:03;6.72;;;1.10;;
57565;SDS011;63999;43.882;-0.310;2023-01-15T22:54:31;4.35;;;0.85;;
57565;SDS011;63999;43.882;-0.310;2023-01-15T22:56:58;5.57;;;1.08;;
57565;SDS011;63999;43.882;-0.310;2023-01-15T22:59:25;4.00;;;0.70;;
57565;SDS011;63999;43.882;-0.310;2023-01-15T23:01:52;5.18;;;0.85;;
57565;SDS011;63999;43.882;-0.310;2023-01-15T23:04:21;7.78;;;1.20;;
57565;SDS011;63999;43.882;-0.310;2023-01-15T23:06:49;3.67;;;1.00;;
57565;SDS011;63999;43.882;-0.310;2023-01-15T23:09:18;2.40;;;0.88;;
57565;SDS011;63999;43.882;-0.310;2023-01-15T23:11:47;3.20;;;0.70;;
57565;SDS011;63999;43.882;-0.310;2023-01-15T23:14:15;3.03;;;0.80;;
57565;SDS011;63999;43.882;-0.310;2023-01-15T23:16:43;3.95;;;1.10;;
57565;SDS011;63999;43.882;-0.310;2023-01-15T23:19:11;7.53;;;1.20;;
57565;SDS011;63999;43.882;-0.310;2023-01-15T23:21:39;5.20;;;1.20;;
57565;SDS011;63999;43.882;-0.310;2023-01-15T23:24:07;2.15;;;0.82;;
57565;SDS011;63999;43.882;-0.310;2023-01-15T23:26:34;5.28;;;0.93;;
57565;SDS011;63999;43.882;-0.310;2023-01-15T23:29:02;5.43;;;1.10;;
57565;SDS011;63999;43.882;-0.310;2023-01-15T23:31:28;6.95;;;0.90;;
57565;SDS011;63999;43.882;-0.310;2023-01-15T23:33:54;4.18;;;1.00;;
57565;SDS011;63999;43.882;-0.310;2023-01-15T23:36:20;3.33;;;0.82;;
57565;SDS011;63999;43.882;-0.310;2023-01-15T23:38:47;4.38;;;0.90;;
57565;SDS011;63999;43.882;-0.310;2023-01-15T23:41:14;4.80;;;0.70;;
57565;SDS011;63999;43.882;-0.310;2023-01-15T23:43:42;5.15;;;0.93;;
57565;SDS011;63999;43.882;-0.310;2023-01-15T23:46:27;4.35;;;0.63;;
57565;SDS011;63999;43.882;-0.310;2023-01-15T23:49:03;2.30;;;0.75;;
57565;SDS011;63999;43.882;-0.310;2023-01-15T23:51:30;4.75;;;0.93;;
57565;SDS011;63999;43.882;-0.310;2023-01-15T23:53:58;2.78;;;0.85;;
57565;SDS011;63999;43.882;-0.310;2023-01-15T23:56:25;3.35;;;0.77;;
57565;SDS011;63999;43.882;-0.310;2023-01-15T23:58:52;6.20;;;1.13;;
